createdAt,value
2022-09-07T00:03:05.895Z,101251.16
2022-09-07T00:08:09.252Z,101239.84
2022-09-07T00:13:13.774Z,101228.56
2022-09-07T00:18:17.164Z,101224.28
2022-09-07T00:23:20.340Z,101227.81
2022-09-07T00:28:24.996Z,101227.88
2022-09-07T00:33:28.795Z,101213.09
2022-09-07T00:38:32.240Z,101213.97
2022-09-07T00:43:37.890Z,101215.78
2022-09-07T00:48:45.055Z,101217.53
2022-09-07T00:53:53.776Z,101213.28
2022-09-07T00:58:58.890Z,101215.88
2022-09-07T01:04:02.348Z,101216.75
2022-09-07T01:09:07.692Z,101210.72
2022-09-07T01:14:16.110Z,101215.03
2022-09-07T01:19:32.035Z,101213.31
2022-09-07T01:24:52.220Z,101215.09
2022-09-07T01:30:01.637Z,101206.41
2022-09-07T01:35:07.434Z,101211.63
2022-09-07T01:40:13.585Z,101207.31
2022-09-07T01:45:20.712Z,101205.63
2022-09-07T01:50:26.224Z,101211.69
2022-09-07T01:55:34.092Z,101216.03
2022-09-07T02:00:39.949Z,101207.34
2022-09-07T02:05:47.030Z,101217.75
2022-09-07T02:10:51.644Z,101205.63
2022-09-07T02:15:59.155Z,101210.81
2022-09-07T02:21:04.146Z,101208.25
2022-09-07T02:26:10.546Z,101204.78
2022-09-07T02:31:16.004Z,101197.81
2022-09-07T02:36:20.963Z,101200.44
2022-09-07T02:41:31.855Z,101192.66
2022-09-07T02:46:46.985Z,101192.66
2022-09-07T02:51:56.560Z,101187.44
2022-09-07T02:57:03.081Z,101190.06
2022-09-07T03:02:12.602Z,101183.09
2022-09-07T03:07:17.582Z,101189.16
2022-09-07T03:12:20.583Z,101179.66
2022-09-07T03:17:24.878Z,101179.66
2022-09-07T03:22:28.496Z,101180.50
2022-09-07T03:27:31.734Z,101177.91
2022-09-07T03:32:36.903Z,101177.03
2022-09-07T03:37:39.978Z,101175.31
2022-09-07T03:42:43.133Z,101182.22
2022-09-07T03:47:47.496Z,101178.78
2022-09-07T03:52:50.504Z,101183.09
2022-09-07T03:57:53.697Z,101188.28
2022-09-07T04:02:58.049Z,101185.69
2022-09-07T04:08:01.234Z,101178.72
2022-09-07T04:13:04.321Z,101181.31
2022-09-07T04:18:08.809Z,101191.72
2022-09-07T04:23:11.818Z,101191.72
2022-09-07T04:28:14.856Z,101186.53
2022-09-07T04:33:19.194Z,101191.69
2022-09-07T04:38:22.179Z,101184.78
2022-09-07T04:43:25.154Z,101191.75
2022-09-07T04:48:29.723Z,101184.81
2022-09-07T04:53:32.895Z,101189.13
2022-09-07T04:58:36.445Z,101190.88
2022-09-07T05:03:40.858Z,101187.44
2022-09-07T05:08:44.947Z,101192.63
2022-09-07T05:13:48.042Z,101190.91
2022-09-07T05:18:53.157Z,101197.84
2022-09-07T05:23:57.026Z,101203.03
2022-09-07T05:39:31.574Z,101197.84
2022-09-07T05:44:44.935Z,101193.50
2022-09-07T05:49:51.134Z,101192.63
2022-09-07T05:55:07.434Z,101189.13
2022-09-07T06:00:16.465Z,101189.13
2022-09-07T06:05:20.818Z,101189.06
2022-09-07T06:15:46.899Z,101177.66
2022-09-07T06:20:51.187Z,101175.88
2022-09-07T06:25:54.196Z,101180.19
2022-09-07T06:31:00.087Z,101171.47
2022-09-07T06:36:05.829Z,101155.88
2022-09-07T06:51:58.586Z,101151.31
2022-09-07T06:57:08.040Z,101151.22
2022-09-07T07:02:12.637Z,101149.38
2022-09-07T07:07:16.967Z,101143.97
2022-09-07T07:17:21.939Z,101149.78
2022-09-07T07:27:49.542Z,101158.19
2022-09-07T07:32:53.087Z,101170.28
2022-09-07T07:43:20.397Z,101172.59
2022-09-07T07:53:44.658Z,101161.72
2022-09-07T07:58:48.396Z,101153.69
2022-09-07T08:03:52.023Z,101156.06
2022-09-07T08:08:56.327Z,101144.56
2022-09-07T08:14:00.354Z,101135.69
2022-09-07T08:19:03.469Z,101129.38
2022-09-07T08:24:08.088Z,101129.91
2022-09-07T08:29:11.765Z,101122.75
2022-09-07T08:34:14.717Z,101112.84
2022-09-07T08:39:19.125Z,101114.22
2022-09-07T08:44:23.539Z,101109.59
2022-09-07T08:49:30.225Z,101104.25
2022-09-07T08:54:34.727Z,101103.00
2022-09-07T08:59:40.835Z,101092.09
2022-09-07T09:10:13.879Z,101090.09
2022-09-07T09:15:21.243Z,101086.97
2022-09-07T09:20:27.342Z,101063.72
2022-09-07T09:25:36.719Z,101058.75
2022-09-07T09:30:48.325Z,101051.06
2022-09-07T09:36:00.852Z,101053.00
2022-09-07T09:41:06.899Z,101039.66
2022-09-07T09:46:21.585Z,101042.94
2022-09-07T09:56:50.795Z,101027.00
2022-09-07T10:07:20.892Z,101011.16
2022-09-07T10:12:26.341Z,101013.31
2022-09-07T10:17:31.035Z,100998.09
2022-09-07T10:22:35.299Z,100995.69
2022-09-07T10:27:41.025Z,101008.88
2022-09-07T10:32:59.463Z,100989.78
2022-09-07T10:38:15.076Z,100981.47
2022-09-07T10:43:24.519Z,100973.13
2022-09-07T10:48:32.153Z,100975.06
2022-09-07T10:53:42.695Z,100959.72
2022-09-07T10:59:04.202Z,100964.81
2022-09-07T11:04:25.829Z,100960.00
2022-09-07T11:09:51.669Z,100966.06
2022-09-07T11:14:59.417Z,100966.72
2022-09-07T11:20:04.654Z,100963.06
2022-09-07T11:25:30.195Z,100952.47
2022-09-07T11:30:36.122Z,100938.25
2022-09-07T11:35:45.454Z,100936.72
2022-09-07T11:40:56.254Z,100921.03
2022-09-07T11:46:04.999Z,100920.28
2022-09-07T11:51:10.357Z,100913.25
2022-09-07T11:56:16.335Z,100907.75
2022-09-07T12:01:27.676Z,100901.97
2022-09-07T12:06:45.536Z,100889.97
2022-09-07T12:12:01.257Z,100887.53
2022-09-07T12:17:16.023Z,100893.59
2022-09-07T12:22:21.338Z,100891.53
2022-09-07T12:27:37.600Z,100894.38
2022-09-07T12:32:58.910Z,100889.50
2022-09-07T12:38:06.007Z,100877.31
2022-09-07T12:43:27.647Z,100871.91
2022-09-07T12:48:35.847Z,100860.16
2022-09-07T12:53:46.810Z,100863.31
2022-09-07T12:59:01.095Z,100855.56
2022-09-07T13:04:19.759Z,100851.47
2022-09-07T13:09:31.156Z,100853.38
2022-09-07T13:14:37.815Z,100847.38
2022-09-07T13:19:59.380Z,100841.75
2022-09-07T13:25:23.935Z,100842.22
2022-09-07T13:30:37.099Z,100834.50
2022-09-07T13:35:45.808Z,100835.13
2022-09-07T13:40:52.198Z,100828.59
2022-09-07T13:46:01.477Z,100821.69
2022-09-07T13:51:07.887Z,100829.19
2022-09-07T13:56:16.961Z,100821.91
2022-09-07T14:01:21.578Z,100824.59
2022-09-07T14:06:30.056Z,100825.56
2022-09-07T14:11:41.552Z,100820.56
2022-09-07T14:16:45.904Z,100816.03
2022-09-07T14:21:59.233Z,100806.16
2022-09-07T14:27:04.851Z,100795.28
2022-09-07T14:32:11.821Z,100812.13
2022-09-07T14:37:16.312Z,100800.78
2022-09-07T14:42:23.124Z,100796.25
2022-09-07T14:47:29.152Z,100784.28
2022-09-07T14:52:36.781Z,100787.31
2022-09-07T14:57:45.131Z,100782.25
2022-09-07T15:02:48.268Z,100789.31
2022-09-07T15:07:52.465Z,100785.28
2022-09-07T15:12:58.013Z,100785.25
2022-09-07T15:18:07.796Z,100770.50
2022-09-07T15:23:13.155Z,100783.59
2022-09-07T15:33:47.357Z,100774.97
2022-09-07T15:39:05.581Z,100785.28
2022-09-07T15:44:09.932Z,100783.34
2022-09-07T15:49:13.531Z,100785.06
2022-09-07T15:54:17.219Z,100790.22
2022-09-07T15:59:21.716Z,100789.09
2022-09-07T16:04:24.711Z,100793.63
2022-09-07T16:09:27.877Z,100789.88
2022-09-07T16:14:35.063Z,100784.06
2022-09-07T16:19:40.999Z,100779.44
2022-09-07T16:24:44.265Z,100774.00
2022-09-07T16:29:49.150Z,100769.19
2022-09-07T16:34:52.120Z,100775.91
2022-09-07T16:39:55.102Z,100767.88
2022-09-07T16:46:02.521Z,100770.94
2022-09-07T16:50:23.469Z,100772.63
2022-09-07T16:55:26.518Z,100770.41
2022-09-07T17:00:33.893Z,100772.81
2022-09-07T17:05:39.291Z,100776.84
2022-09-07T17:10:42.291Z,100770.09
2022-09-07T17:15:46.828Z,100777.38
2022-09-07T17:20:55.084Z,100784.81
2022-09-07T17:26:03.988Z,100781.63
2022-09-07T17:31:09.852Z,100775.97
2022-09-07T17:36:13.822Z,100788.50
2022-09-07T17:41:18.515Z,100792.34
2022-09-07T17:46:24.023Z,100810.28
2022-09-07T17:51:27.912Z,100806.28
2022-09-07T17:56:31.672Z,100809.09
2022-09-07T18:01:35.984Z,100810.41
2022-09-07T18:06:39.302Z,100810.59
2022-09-07T18:11:45.403Z,100809.16
2022-09-07T18:16:50.833Z,100814.63
2022-09-07T18:21:53.896Z,100800.97
2022-09-07T18:26:56.884Z,100802.09
2022-09-07T18:32:02.262Z,100809.25
2022-09-07T18:37:05.633Z,100810.97
2022-09-07T18:42:08.921Z,100801.56
2022-09-07T18:47:22.193Z,100804.44
2022-09-07T18:57:49.952Z,100810.78
2022-09-07T19:02:54.342Z,100806.53
2022-09-07T19:07:57.366Z,100810.09
2022-09-07T19:13:00.353Z,100806.03
2022-09-07T19:18:05.762Z,100810.72
2022-09-07T19:23:10.630Z,100807.09
2022-09-07T19:28:14.396Z,100798.41
2022-09-07T19:33:18.774Z,100794.16
2022-09-07T19:38:22.050Z,100803.13
2022-09-07T19:43:25.120Z,100803.44
2022-09-07T19:48:31.704Z,100808.53
2022-09-07T19:53:35.957Z,100814.94
2022-09-07T19:58:40.067Z,100814.16
2022-09-07T20:03:50.462Z,100816.00
2022-09-07T20:08:53.414Z,100819.72
2022-09-07T20:13:56.979Z,100816.47
2022-09-07T20:19:01.274Z,100821.81
2022-09-07T20:24:04.454Z,100823.78
2022-09-07T20:34:32.218Z,100817.19
2022-09-07T20:39:39.043Z,100818.91
2022-09-07T20:44:42.381Z,100817.28
2022-09-07T20:49:46.989Z,100811.63
2022-09-07T20:54:50.132Z,100812.50
2022-09-07T20:59:53.288Z,100815.22
2022-09-07T21:04:57.578Z,100816.34
2022-09-07T21:10:03.404Z,100812.50
2022-09-07T21:15:09.959Z,100820.91
2022-09-07T21:20:14.182Z,100828.94
2022-09-07T21:25:17.765Z,100825.66
2022-09-07T21:30:20.687Z,100835.06
2022-09-07T21:35:24.960Z,100833.34
2022-09-07T21:40:28.176Z,100832.66
2022-09-07T21:45:32.275Z,100839.81
2022-09-07T21:50:36.582Z,100832.22
2022-09-07T21:55:39.497Z,100844.53
2022-09-07T22:00:42.449Z,100845.59
2022-09-07T22:05:49.317Z,100841.41
2022-09-07T22:10:52.289Z,100825.66
2022-09-07T22:15:55.293Z,100824.03
2022-09-07T22:21:03.142Z,100820.59
2022-09-07T22:26:06.576Z,100814.81
2022-09-07T22:31:10.443Z,100812.41
2022-09-07T22:36:16.247Z,100813.16
2022-09-07T22:41:20.385Z,100814.03
2022-09-07T22:46:24.274Z,100812.41
2022-09-07T22:51:29.920Z,100806.50
2022-09-07T22:56:34.037Z,100823.28
2022-09-07T23:01:37.130Z,100815.53
2022-09-07T23:06:42.406Z,100823.16
2022-09-07T23:11:46.242Z,100821.69
2022-09-07T23:16:49.587Z,100825.38
2022-09-07T23:21:53.862Z,100821.13
2022-09-07T23:26:56.760Z,100824.00
2022-09-07T23:31:59.703Z,100820.84
2022-09-07T23:37:04.006Z,100810.03
2022-09-07T23:42:07.098Z,100807.22
2022-09-07T23:47:10.046Z,100807.09
2022-09-07T23:52:14.334Z,100801.00
2022-09-07T23:57:17.302Z,100805.03
